sensor_id;sensor_type;location;lat;lon;timestamp;temperature;humidity
75994;DHT22;64680;53.800;9.988;2024-01-11T00:02:23;-1.50;89.20
75994;DHT22;64680;53.800;9.988;2024-01-11T00:04:48;-1.50;90.20
75994;DHT22;64680;53.800;9.988;2024-01-11T00:07:14;-1.50;89.30
75994;DHT22;64680;53.800;9.988;2024-01-11T00:09:42;-1.50;89.50
75994;DHT22;64680;53.800;9.988;2024-01-11T00:12:08;-1.50;90.20
75994;DHT22;64680;53.800;9.988;2024-01-11T00:14:34;-1.50;90.60
75994;DHT22;64680;53.800;9.988;2024-01-11T00:17:00;-1.50;88.40
75994;DHT22;64680;53.800;9.988;2024-01-11T00:19:26;-1.50;88.40
75994;DHT22;64680;53.800;9.988;2024-01-11T00:21:52;-1.50;88.90
75994;DHT22;64680;53.800;9.988;2024-01-11T00:24:17;-1.50;90.70
75994;DHT22;64680;53.800;9.988;2024-01-11T00:26:43;-1.50;88.20
75994;DHT22;64680;53.800;9.988;2024-01-11T00:29:08;-1.50;87.70
75994;DHT22;64680;53.800;9.988;2024-01-11T00:31:34;-1.50;87.90
75994;DHT22;64680;53.800;9.988;2024-01-11T00:34:00;-1.60;88.90
75994;DHT22;64680;53.800;9.988;2024-01-11T00:36:26;-1.60;89.50
75994;DHT22;64680;53.800;9.988;2024-01-11T00:38:53;-1.60;90.80
75994;DHT22;64680;53.800;9.988;2024-01-11T00:41:19;-1.60;91.60
75994;DHT22;64680;53.800;9.988;2024-01-11T00:43:45;-1.60;90.30
75994;DHT22;64680;53.800;9.988;2024-01-11T00:46:10;-1.60;92.50
75994;DHT22;64680;53.800;9.988;2024-01-11T00:48:36;-1.60;90.30
75994;DHT22;64680;53.800;9.988;2024-01-11T00:51:04;-1.60;91.10
75994;DHT22;64680;53.800;9.988;2024-01-11T00:53:29;-1.60;92.10
75994;DHT22;64680;53.800;9.988;2024-01-11T00:56:00;-1.60;89.90
75994;DHT22;64680;53.800;9.988;2024-01-11T00:58:25;-1.70;91.70
75994;DHT22;64680;53.800;9.988;2024-01-11T01:00:51;-1.70;90.20
75994;DHT22;64680;53.800;9.988;2024-01-11T01:03:19;-1.70;89.80
75994;DHT22;64680;53.800;9.988;2024-01-11T01:05:44;-1.80;90.80
75994;DHT22;64680;53.800;9.988;2024-01-11T01:08:10;-1.70;93.10
75994;DHT22;64680;53.800;9.988;2024-01-11T01:10:36;-1.70;92.10
75994;DHT22;64680;53.800;9.988;2024-01-11T01:13:01;-1.60;91.70
75994;DHT22;64680;53.800;9.988;2024-01-11T01:15:28;-1.70;91.20
75994;DHT22;64680;53.800;9.988;2024-01-11T01:17:53;-1.70;91.40
75994;DHT22;64680;53.800;9.988;2024-01-11T01:20:19;-1.80;89.60
75994;DHT22;64680;53.800;9.988;2024-01-11T01:22:44;-1.80;90.70
75994;DHT22;64680;53.800;9.988;2024-01-11T01:25:10;-1.80;91.80
75994;DHT22;64680;53.800;9.988;2024-01-11T01:27:36;-1.80;92.60
75994;DHT22;64680;53.800;9.988;2024-01-11T01:30:01;-1.80;92.90
75994;DHT22;64680;53.800;9.988;2024-01-11T01:32:27;-1.80;92.60
75994;DHT22;64680;53.800;9.988;2024-01-11T01:34:53;-1.80;94.40
75994;DHT22;64680;53.800;9.988;2024-01-11T01:37:18;-1.80;93.80
75994;DHT22;64680;53.800;9.988;2024-01-11T01:39:44;-1.80;92.60
75994;DHT22;64680;53.800;9.988;2024-01-11T01:42:09;-1.80;92.80
75994;DHT22;64680;53.800;9.988;2024-01-11T01:44:35;-1.90;93.70
75994;DHT22;64680;53.800;9.988;2024-01-11T01:47:02;-1.80;95.50
75994;DHT22;64680;53.800;9.988;2024-01-11T01:49:29;-1.80;94.80
75994;DHT22;64680;53.800;9.988;2024-01-11T01:51:55;-1.80;92.70
75994;DHT22;64680;53.800;9.988;2024-01-11T01:54:21;-1.80;93.00
75994;DHT22;64680;53.800;9.988;2024-01-11T01:56:48;-1.90;93.20
75994;DHT22;64680;53.800;9.988;2024-01-11T01:59:14;-1.90;92.00
75994;DHT22;64680;53.800;9.988;2024-01-11T02:01:44;-1.90;92.40
75994;DHT22;64680;53.800;9.988;2024-01-11T02:04:10;-1.90;93.30
75994;DHT22;64680;53.800;9.988;2024-01-11T02:06:36;-2.00;93.60
75994;DHT22;64680;53.800;9.988;2024-01-11T02:09:02;-1.90;94.40
75994;DHT22;64680;53.800;9.988;2024-01-11T02:11:30;-1.90;96.50
75994;DHT22;64680;53.800;9.988;2024-01-11T02:13:56;-1.80;95.30
75994;DHT22;64680;53.800;9.988;2024-01-11T02:16:23;-1.80;93.50
75994;DHT22;64680;53.800;9.988;2024-01-11T02:18:49;-1.90;91.60
75994;DHT22;64680;53.800;9.988;2024-01-11T02:21:15;-1.90;92.40
75994;DHT22;64680;53.800;9.988;2024-01-11T02:26:24;-2.00;93.00
75994;DHT22;64680;53.800;9.988;2024-01-11T02:28:49;-2.00;93.80
75994;DHT22;64680;53.800;9.988;2024-01-11T02:31:15;-2.00;94.10
75994;DHT22;64680;53.800;9.988;2024-01-11T02:33:41;-2.10;94.80
75994;DHT22;64680;53.800;9.988;2024-01-11T02:36:07;-2.10;96.00
75994;DHT22;64680;53.800;9.988;2024-01-11T02:38:34;-2.10;96.30
75994;DHT22;64680;53.800;9.988;2024-01-11T02:41:00;-2.10;95.80
75994;DHT22;64680;53.800;9.988;2024-01-11T02:43:26;-2.10;96.70
75994;DHT22;64680;53.800;9.988;2024-01-11T02:45:55;-2.10;96.60
75994;DHT22;64680;53.800;9.988;2024-01-11T02:48:21;-2.00;96.70
75994;DHT22;64680;53.800;9.988;2024-01-11T02:50:50;-2.00;95.50
75994;DHT22;64680;53.800;9.988;2024-01-11T02:53:16;-2.00;96.30
75994;DHT22;64680;53.800;9.988;2024-01-11T02:55:41;-2.00;96.10
75994;DHT22;64680;53.800;9.988;2024-01-11T02:58:07;-2.00;94.20
75994;DHT22;64680;53.800;9.988;2024-01-11T03:00:33;-2.00;93.80
75994;DHT22;64680;53.800;9.988;2024-01-11T03:02:58;-2.00;94.20
75994;DHT22;64680;53.800;9.988;2024-01-11T03:05:24;-2.00;95.30
75994;DHT22;64680;53.800;9.988;2024-01-11T03:07:49;-2.00;95.00
75994;DHT22;64680;53.800;9.988;2024-01-11T03:10:15;-1.90;94.90
75994;DHT22;64680;53.800;9.988;2024-01-11T03:12:40;-2.00;91.60
75994;DHT22;64680;53.800;9.988;2024-01-11T03:15:06;-2.00;91.70
75994;DHT22;64680;53.800;9.988;2024-01-11T03:17:33;-2.10;92.30
75994;DHT22;64680;53.800;9.988;2024-01-11T03:19:59;-2.10;92.70
75994;DHT22;64680;53.800;9.988;2024-01-11T03:22:25;-2.10;92.70
75994;DHT22;64680;53.800;9.988;2024-01-11T03:24:50;-2.20;93.40
75994;DHT22;64680;53.800;9.988;2024-01-11T03:27:16;-2.00;92.50
75994;DHT22;64680;53.800;9.988;2024-01-11T03:29:42;-2.00;89.10
75994;DHT22;64680;53.800;9.988;2024-01-11T03:32:07;-2.00;86.30
75994;DHT22;64680;53.800;9.988;2024-01-11T03:34:33;-2.00;85.20
75994;DHT22;64680;53.800;9.988;2024-01-11T03:36:58;-2.00;86.50
75994;DHT22;64680;53.800;9.988;2024-01-11T03:39:25;-2.00;86.00
75994;DHT22;64680;53.800;9.988;2024-01-11T03:41:50;-2.00;85.70
75994;DHT22;64680;53.800;9.988;2024-01-11T03:44:16;-2.00;86.80
75994;DHT22;64680;53.800;9.988;2024-01-11T03:46:42;-2.10;86.40
75994;DHT22;64680;53.800;9.988;2024-01-11T03:49:07;-2.10;88.60
75994;DHT22;64680;53.800;9.988;2024-01-11T03:51:34;-2.00;87.50
75994;DHT22;64680;53.800;9.988;2024-01-11T03:53:59;-2.00;86.30
75994;DHT22;64680;53.800;9.988;2024-01-11T03:56:25;-2.10;87.10
75994;DHT22;64680;53.800;9.988;2024-01-11T03:58:51;-2.10;88.70
75994;DHT22;64680;53.800;9.988;2024-01-11T04:01:16;-2.10;89.20
75994;DHT22;64680;53.800;9.988;2024-01-11T04:03:42;-2.10;90.70
75994;DHT22;64680;53.800;9.988;2024-01-11T04:06:08;-2.20;91.40
75994;DHT22;64680;53.800;9.988;2024-01-11T04:08:33;-2.20;92.30
75994;DHT22;64680;53.800;9.988;2024-01-11T04:11:02;-2.30;93.40
75994;DHT22;64680;53.800;9.988;2024-01-11T04:13:29;-2.20;95.00
75994;DHT22;64680;53.800;9.988;2024-01-11T04:15:54;-2.30;95.50
75994;DHT22;64680;53.800;9.988;2024-01-11T04:18:20;-2.20;97.30
75994;DHT22;64680;53.800;9.988;2024-01-11T04:20:46;-2.20;96.50
75994;DHT22;64680;53.800;9.988;2024-01-11T04:23:11;-2.20;95.90
75994;DHT22;64680;53.800;9.988;2024-01-11T04:25:37;-2.10;96.90
75994;DHT22;64680;53.800;9.988;2024-01-11T04:28:02;-2.20;96.40
75994;DHT22;64680;53.800;9.988;2024-01-11T04:30:31;-2.10;96.30
75994;DHT22;64680;53.800;9.988;2024-01-11T04:32:57;-2.10;97.40
75994;DHT22;64680;53.800;9.988;2024-01-11T04:35:22;-2.00;95.20
75994;DHT22;64680;53.800;9.988;2024-01-11T04:37:48;-2.10;94.30
75994;DHT22;64680;53.800;9.988;2024-01-11T04:40:13;-2.10;94.60
75994;DHT22;64680;53.800;9.988;2024-01-11T04:42:39;-2.10;96.50
75994;DHT22;64680;53.800;9.988;2024-01-11T04:45:04;-2.20;95.60
75994;DHT22;64680;53.800;9.988;2024-01-11T04:47:30;-2.10;98.40
75994;DHT22;64680;53.800;9.988;2024-01-11T04:49:57;-2.00;97.50
75994;DHT22;64680;53.800;9.988;2024-01-11T04:52:23;-2.10;96.20
75994;DHT22;64680;53.800;9.988;2024-01-11T04:54:48;-2.10;96.80
75994;DHT22;64680;53.800;9.988;2024-01-11T04:57:14;-2.00;98.10
75994;DHT22;64680;53.800;9.988;2024-01-11T04:59:42;-2.00;96.60
75994;DHT22;64680;53.800;9.988;2024-01-11T05:02:07;-2.20;97.00
75994;DHT22;64680;53.800;9.988;2024-01-11T05:04:34;-2.20;98.60
75994;DHT22;64680;53.800;9.988;2024-01-11T05:06:59;-2.20;99.90
75994;DHT22;64680;53.800;9.988;2024-01-11T05:09:25;-2.10;99.90
75994;DHT22;64680;53.800;9.988;2024-01-11T05:11:51;-2.00;99.90
75994;DHT22;64680;53.800;9.988;2024-01-11T05:14:16;-2.00;99.90
75994;DHT22;64680;53.800;9.988;2024-01-11T05:16:42;-2.10;99.90
75994;DHT22;64680;53.800;9.988;2024-01-11T05:19:08;-2.10;99.90
75994;DHT22;64680;53.800;9.988;2024-01-11T05:21:34;-2.10;99.90
75994;DHT22;64680;53.800;9.988;2024-01-11T05:24:01;-2.10;99.90
75994;DHT22;64680;53.800;9.988;2024-01-11T05:26:26;-2.10;99.90
75994;DHT22;64680;53.800;9.988;2024-01-11T05:28:52;-2.00;99.90
75994;DHT22;64680;53.800;9.988;2024-01-11T05:31:18;-2.00;99.90
75994;DHT22;64680;53.800;9.988;2024-01-11T05:33:43;-2.00;99.90
75994;DHT22;64680;53.800;9.988;2024-01-11T05:36:09;-2.10;99.90
75994;DHT22;64680;53.800;9.988;2024-01-11T05:38:35;-2.10;99.90
75994;DHT22;64680;53.800;9.988;2024-01-11T05:41:01;-2.00;99.90
75994;DHT22;64680;53.800;9.988;2024-01-11T05:43:27;-2.00;99.90
75994;DHT22;64680;53.800;9.988;2024-01-11T05:45:53;-2.00;99.90
75994;DHT22;64680;53.800;9.988;2024-01-11T05:48:18;-2.00;99.90
75994;DHT22;64680;53.800;9.988;2024-01-11T05:50:44;-2.00;99.90
75994;DHT22;64680;53.800;9.988;2024-01-11T05:53:10;-2.00;99.90
75994;DHT22;64680;53.800;9.988;2024-01-11T05:55:36;-2.00;99.90
75994;DHT22;64680;53.800;9.988;2024-01-11T05:58:02;-2.00;99.90
75994;DHT22;64680;53.800;9.988;2024-01-11T06:00:27;-2.00;99.90
75994;DHT22;64680;53.800;9.988;2024-01-11T06:02:53;-2.00;99.90
75994;DHT22;64680;53.800;9.988;2024-01-11T06:05:18;-2.00;99.90
75994;DHT22;64680;53.800;9.988;2024-01-11T06:07:44;-2.00;99.90
75994;DHT22;64680;53.800;9.988;2024-01-11T06:10:10;-2.00;99.90
75994;DHT22;64680;53.800;9.988;2024-01-11T06:12:36;-2.00;99.90
75994;DHT22;64680;53.800;9.988;2024-01-11T06:15:02;-2.00;99.90
75994;DHT22;64680;53.800;9.988;2024-01-11T06:17:31;-1.90;99.90
75994;DHT22;64680;53.800;9.988;2024-01-11T06:19:56;-1.90;99.90
75994;DHT22;64680;53.800;9.988;2024-01-11T06:22:23;-1.90;99.90
75994;DHT22;64680;53.800;9.988;2024-01-11T06:24:48;-1.90;99.90
75994;DHT22;64680;53.800;9.988;2024-01-11T06:27:14;-1.80;99.90
75994;DHT22;64680;53.800;9.988;2024-01-11T06:29:40;-1.80;99.90
75994;DHT22;64680;53.800;9.988;2024-01-11T06:32:05;-1.80;99.90
75994;DHT22;64680;53.800;9.988;2024-01-11T06:34:31;-1.80;99.90
75994;DHT22;64680;53.800;9.988;2024-01-11T06:36:57;-1.70;99.90
75994;DHT22;64680;53.800;9.988;2024-01-11T06:39:22;-1.80;99.90
75994;DHT22;64680;53.800;9.988;2024-01-11T06:41:48;-1.80;99.90
75994;DHT22;64680;53.800;9.988;2024-01-11T06:44:14;-1.70;99.90
75994;DHT22;64680;53.800;9.988;2024-01-11T06:46:39;-1.70;99.90
75994;DHT22;64680;53.800;9.988;2024-01-11T06:49:07;-1.70;99.90
75994;DHT22;64680;53.800;9.988;2024-01-11T06:51:32;-1.70;99.90
75994;DHT22;64680;53.800;9.988;2024-01-11T06:54:00;-1.70;99.90
75994;DHT22;64680;53.800;9.988;2024-01-11T06:56:27;-1.70;99.90
75994;DHT22;64680;53.800;9.988;2024-01-11T06:58:52;-1.60;99.90
75994;DHT22;64680;53.800;9.988;2024-01-11T07:01:19;-1.60;99.90
75994;DHT22;64680;53.800;9.988;2024-01-11T07:03:45;-1.70;99.90
75994;DHT22;64680;53.800;9.988;2024-01-11T07:06:11;-1.70;99.90
75994;DHT22;64680;53.800;9.988;2024-01-11T07:08:37;-1.60;99.90
75994;DHT22;64680;53.800;9.988;2024-01-11T07:11:03;-1.60;99.90
75994;DHT22;64680;53.800;9.988;2024-01-11T07:13:29;-1.60;99.90
75994;DHT22;64680;53.800;9.988;2024-01-11T07:15:56;-1.60;99.90
75994;DHT22;64680;53.800;9.988;2024-01-11T07:18:24;-1.60;99.90
75994;DHT22;64680;53.800;9.988;2024-01-11T07:20:50;-1.60;99.90
75994;DHT22;64680;53.800;9.988;2024-01-11T07:23:16;-1.60;99.90
75994;DHT22;64680;53.800;9.988;2024-01-11T07:25:42;-1.60;99.90
75994;DHT22;64680;53.800;9.988;2024-01-11T07:28:08;-1.60;99.90
75994;DHT22;64680;53.800;9.988;2024-01-11T07:30:34;-1.60;99.90
75994;DHT22;64680;53.800;9.988;2024-01-11T07:33:00;-1.50;99.90
75994;DHT22;64680;53.800;9.988;2024-01-11T07:35:25;-1.50;99.90
75994;DHT22;64680;53.800;9.988;2024-01-11T07:37:51;-1.50;99.90
75994;DHT22;64680;53.800;9.988;2024-01-11T07:40:16;-1.50;99.90
75994;DHT22;64680;53.800;9.988;2024-01-11T07:42:43;-1.50;99.90
75994;DHT22;64680;53.800;9.988;2024-01-11T07:45:09;-1.50;99.90
75994;DHT22;64680;53.800;9.988;2024-01-11T07:47:36;-1.50;99.90
75994;DHT22;64680;53.800;9.988;2024-01-11T07:50:07;-1.50;99.90
75994;DHT22;64680;53.800;9.988;2024-01-11T07:52:33;-1.50;99.90
75994;DHT22;64680;53.800;9.988;2024-01-11T07:54:59;-1.40;99.90
75994;DHT22;64680;53.800;9.988;2024-01-11T07:57:35;-1.40;99.90
75994;DHT22;64680;53.800;9.988;2024-01-11T08:00:01;-1.40;99.90
75994;DHT22;64680;53.800;9.988;2024-01-11T08:02:28;-1.40;99.90
75994;DHT22;64680;53.800;9.988;2024-01-11T08:04:55;-1.40;99.90
75994;DHT22;64680;53.800;9.988;2024-01-11T08:07:20;-1.40;99.90
75994;DHT22;64680;53.800;9.988;2024-01-11T08:09:47;-1.30;99.90
75994;DHT22;64680;53.800;9.988;2024-01-11T08:12:16;-1.30;99.90
75994;DHT22;64680;53.800;9.988;2024-01-11T08:14:41;-1.20;99.90
75994;DHT22;64680;53.800;9.988;2024-01-11T08:17:11;-1.20;99.90
75994;DHT22;64680;53.800;9.988;2024-01-11T08:19:39;-1.20;99.90
75994;DHT22;64680;53.800;9.988;2024-01-11T08:22:05;-1.10;99.90
75994;DHT22;64680;53.800;9.988;2024-01-11T08:24:31;-1.00;99.90
75994;DHT22;64680;53.800;9.988;2024-01-11T08:26:57;-1.00;99.90
75994;DHT22;64680;53.800;9.988;2024-01-11T08:29:23;-1.00;99.90
75994;DHT22;64680;53.800;9.988;2024-01-11T08:31:48;-0.90;99.90
75994;DHT22;64680;53.800;9.988;2024-01-11T08:34:14;-0.90;99.90
75994;DHT22;64680;53.800;9.988;2024-01-11T08:36:40;-0.90;99.90
75994;DHT22;64680;53.800;9.988;2024-01-11T08:39:06;-0.80;99.90
75994;DHT22;64680;53.800;9.988;2024-01-11T08:41:32;-0.80;99.90
75994;DHT22;64680;53.800;9.988;2024-01-11T08:43:58;-0.80;99.90
75994;DHT22;64680;53.800;9.988;2024-01-11T08:46:27;-0.80;99.90
75994;DHT22;64680;53.800;9.988;2024-01-11T08:48:54;-0.80;99.90
75994;DHT22;64680;53.800;9.988;2024-01-11T08:51:21;-0.80;99.90
75994;DHT22;64680;53.800;9.988;2024-01-11T08:53:47;-0.80;99.90
75994;DHT22;64680;53.800;9.988;2024-01-11T08:56:12;-0.80;99.90
75994;DHT22;64680;53.800;9.988;2024-01-11T08:58:40;-0.80;99.90
75994;DHT22;64680;53.800;9.988;2024-01-11T09:01:06;-0.80;99.90
75994;DHT22;64680;53.800;9.988;2024-01-11T09:03:34;-0.70;99.90
75994;DHT22;64680;53.800;9.988;2024-01-11T09:05:59;-0.70;99.90
75994;DHT22;64680;53.800;9.988;2024-01-11T09:08:26;-0.60;99.90
75994;DHT22;64680;53.800;9.988;2024-01-11T09:10:51;-0.60;99.90
75994;DHT22;64680;53.800;9.988;2024-01-11T09:13:18;-0.60;99.90
75994;DHT22;64680;53.800;9.988;2024-01-11T09:15:43;-0.60;99.90
75994;DHT22;64680;53.800;9.988;2024-01-11T09:18:09;-0.50;99.90
75994;DHT22;64680;53.800;9.988;2024-01-11T09:20:35;-0.50;99.90
75994;DHT22;64680;53.800;9.988;2024-01-11T09:23:01;-0.40;99.90
75994;DHT22;64680;53.800;9.988;2024-01-11T09:25:30;-0.30;99.90
75994;DHT22;64680;53.800;9.988;2024-01-11T09:27:56;-0.40;99.90
75994;DHT22;64680;53.800;9.988;2024-01-11T09:30:21;-0.40;99.90
75994;DHT22;64680;53.800;9.988;2024-01-11T09:32:47;-0.30;99.90
75994;DHT22;64680;53.800;9.988;2024-01-11T09:35:13;-0.40;99.90
75994;DHT22;64680;53.800;9.988;2024-01-11T09:37:39;-0.30;99.90
75994;DHT22;64680;53.800;9.988;2024-01-11T09:40:05;-0.30;99.90
75994;DHT22;64680;53.800;9.988;2024-01-11T09:42:36;-0.20;99.90
75994;DHT22;64680;53.800;9.988;2024-01-11T09:45:03;-0.20;99.90
75994;DHT22;64680;53.800;9.988;2024-01-11T09:47:33;-0.20;99.90
75994;DHT22;64680;53.800;9.988;2024-01-11T09:50:02;-0.20;99.90
75994;DHT22;64680;53.800;9.988;2024-01-11T09:52:28;-0.10;99.90
75994;DHT22;64680;53.800;9.988;2024-01-11T09:54:57;-0.10;99.90
75994;DHT22;64680;53.800;9.988;2024-01-11T09:57:26;-0.10;99.90
75994;DHT22;64680;53.800;9.988;2024-01-11T09:59:57;-0.10;99.90
75994;DHT22;64680;53.800;9.988;2024-01-11T10:02:26;0.00;99.90
75994;DHT22;64680;53.800;9.988;2024-01-11T10:04:55;-0.10;99.90
75994;DHT22;64680;53.800;9.988;2024-01-11T10:07:24;-0.10;99.90
75994;DHT22;64680;53.800;9.988;2024-01-11T10:09:52;-0.10;99.90
75994;DHT22;64680;53.800;9.988;2024-01-11T10:12:18;0.00;99.90
75994;DHT22;64680;53.800;9.988;2024-01-11T10:14:46;0.00;99.90
75994;DHT22;64680;53.800;9.988;2024-01-11T10:17:12;0.10;99.60
75994;DHT22;64680;53.800;9.988;2024-01-11T10:19:38;0.10;98.30
75994;DHT22;64680;53.800;9.988;2024-01-11T10:22:03;0.10;96.90
75994;DHT22;64680;53.800;9.988;2024-01-11T10:24:30;0.20;97.50
75994;DHT22;64680;53.800;9.988;2024-01-11T10:26:56;0.20;97.30
75994;DHT22;64680;53.800;9.988;2024-01-11T10:29:23;0.20;96.80
75994;DHT22;64680;53.800;9.988;2024-01-11T10:31:52;0.30;96.80
75994;DHT22;64680;53.800;9.988;2024-01-11T10:34:18;0.20;97.10
75994;DHT22;64680;53.800;9.988;2024-01-11T10:36:44;0.30;98.10
75994;DHT22;64680;53.800;9.988;2024-01-11T10:39:11;0.30;97.70
75994;DHT22;64680;53.800;9.988;2024-01-11T10:41:40;0.20;97.00
75994;DHT22;64680;53.800;9.988;2024-01-11T10:44:20;0.30;97.60
75994;DHT22;64680;53.800;9.988;2024-01-11T10:46:50;0.30;97.50
75994;DHT22;64680;53.800;9.988;2024-01-11T10:49:19;0.30;98.80
75994;DHT22;64680;53.800;9.988;2024-01-11T10:52:00;0.30;97.90
75994;DHT22;64680;53.800;9.988;2024-01-11T10:54:30;0.40;99.00
75994;DHT22;64680;53.800;9.988;2024-01-11T10:56:58;0.40;98.10
75994;DHT22;64680;53.800;9.988;2024-01-11T10:59:29;0.40;98.60
75994;DHT22;64680;53.800;9.988;2024-01-11T11:01:57;0.40;98.10
75994;DHT22;64680;53.800;9.988;2024-01-11T11:04:24;0.40;98.40
75994;DHT22;64680;53.800;9.988;2024-01-11T11:06:55;0.40;98.80
75994;DHT22;64680;53.800;9.988;2024-01-11T11:09:22;0.40;99.90
75994;DHT22;64680;53.800;9.988;2024-01-11T11:11:49;0.50;99.90
75994;DHT22;64680;53.800;9.988;2024-01-11T11:14:15;0.50;99.90
75994;DHT22;64680;53.800;9.988;2024-01-11T11:16:41;0.60;99.90
75994;DHT22;64680;53.800;9.988;2024-01-11T11:19:07;0.60;99.90
75994;DHT22;64680;53.800;9.988;2024-01-11T11:21:42;0.60;99.90
75994;DHT22;64680;53.800;9.988;2024-01-11T11:24:08;0.60;99.90
75994;DHT22;64680;53.800;9.988;2024-01-11T11:26:36;0.60;99.90
75994;DHT22;64680;53.800;9.988;2024-01-11T11:29:03;0.60;99.90
75994;DHT22;64680;53.800;9.988;2024-01-11T11:31:45;0.70;99.90
75994;DHT22;64680;53.800;9.988;2024-01-11T11:34:13;0.80;99.90
75994;DHT22;64680;53.800;9.988;2024-01-11T11:36:40;0.80;99.90
75994;DHT22;64680;53.800;9.988;2024-01-11T11:39:10;0.80;99.90
75994;DHT22;64680;53.800;9.988;2024-01-11T11:41:37;0.80;99.90
75994;DHT22;64680;53.800;9.988;2024-01-11T11:44:04;0.80;99.90
75994;DHT22;64680;53.800;9.988;2024-01-11T11:46:31;0.80;99.90
75994;DHT22;64680;53.800;9.988;2024-01-11T11:48:57;0.90;99.90
75994;DHT22;64680;53.800;9.988;2024-01-11T11:51:23;0.90;99.90
75994;DHT22;64680;53.800;9.988;2024-01-11T11:53:50;1.00;99.90
75994;DHT22;64680;53.800;9.988;2024-01-11T11:56:18;1.00;99.90
75994;DHT22;64680;53.800;9.988;2024-01-11T11:58:45;1.10;99.90
75994;DHT22;64680;53.800;9.988;2024-01-11T12:01:12;1.20;99.90
75994;DHT22;64680;53.800;9.988;2024-01-11T12:03:40;1.20;99.90
75994;DHT22;64680;53.800;9.988;2024-01-11T12:06:08;1.20;99.90
75994;DHT22;64680;53.800;9.988;2024-01-11T12:08:34;1.20;99.40
75994;DHT22;64680;53.800;9.988;2024-01-11T12:11:01;1.20;97.70
75994;DHT22;64680;53.800;9.988;2024-01-11T12:13:27;1.30;96.30
75994;DHT22;64680;53.800;9.988;2024-01-11T12:15:53;1.30;95.70
75994;DHT22;64680;53.800;9.988;2024-01-11T12:18:18;1.40;95.30
75994;DHT22;64680;53.800;9.988;2024-01-11T12:20:45;1.50;95.50
75994;DHT22;64680;53.800;9.988;2024-01-11T12:23:10;1.50;92.70
75994;DHT22;64680;53.800;9.988;2024-01-11T12:25:36;1.50;92.10
75994;DHT22;64680;53.800;9.988;2024-01-11T12:28:02;1.60;91.60
75994;DHT22;64680;53.800;9.988;2024-01-11T12:30:28;1.60;89.50
75994;DHT22;64680;53.800;9.988;2024-01-11T12:32:55;1.60;88.50
75994;DHT22;64680;53.800;9.988;2024-01-11T12:35:21;1.60;86.10
75994;DHT22;64680;53.800;9.988;2024-01-11T12:38:04;1.60;85.90
75994;DHT22;64680;53.800;9.988;2024-01-11T12:40:38;1.50;86.20
75994;DHT22;64680;53.800;9.988;2024-01-11T12:43:07;1.50;87.90
75994;DHT22;64680;53.800;9.988;2024-01-11T12:45:34;1.50;89.10
75994;DHT22;64680;53.800;9.988;2024-01-11T12:48:00;1.50;88.20
75994;DHT22;64680;53.800;9.988;2024-01-11T12:50:27;1.50;89.70
75994;DHT22;64680;53.800;9.988;2024-01-11T12:53:13;1.50;91.10
75994;DHT22;64680;53.800;9.988;2024-01-11T12:55:46;1.50;92.10
75994;DHT22;64680;53.800;9.988;2024-01-11T12:58:11;1.50;93.50
75994;DHT22;64680;53.800;9.988;2024-01-11T13:00:38;1.50;94.60
75994;DHT22;64680;53.800;9.988;2024-01-11T13:03:06;1.60;92.90
75994;DHT22;64680;53.800;9.988;2024-01-11T13:05:35;1.50;93.20
75994;DHT22;64680;53.800;9.988;2024-01-11T13:08:10;1.60;93.90
75994;DHT22;64680;53.800;9.988;2024-01-11T13:10:36;1.70;95.00
75994;DHT22;64680;53.800;9.988;2024-01-11T13:13:03;1.70;95.50
75994;DHT22;64680;53.800;9.988;2024-01-11T13:15:29;1.70;94.90
75994;DHT22;64680;53.800;9.988;2024-01-11T13:17:59;1.70;93.90
75994;DHT22;64680;53.800;9.988;2024-01-11T13:20:25;1.70;94.00
75994;DHT22;64680;53.800;9.988;2024-01-11T13:23:14;1.60;92.20
75994;DHT22;64680;53.800;9.988;2024-01-11T13:25:44;1.70;92.30
75994;DHT22;64680;53.800;9.988;2024-01-11T13:28:10;1.60;93.80
75994;DHT22;64680;53.800;9.988;2024-01-11T13:30:41;1.60;93.10
75994;DHT22;64680;53.800;9.988;2024-01-11T13:33:08;1.60;94.50
75994;DHT22;64680;53.800;9.988;2024-01-11T13:35:38;1.60;95.60
75994;DHT22;64680;53.800;9.988;2024-01-11T13:38:04;1.60;96.40
75994;DHT22;64680;53.800;9.988;2024-01-11T13:40:31;1.70;97.10
75994;DHT22;64680;53.800;9.988;2024-01-11T13:42:57;1.70;95.20
75994;DHT22;64680;53.800;9.988;2024-01-11T13:45:23;1.70;95.90
75994;DHT22;64680;53.800;9.988;2024-01-11T13:47:50;1.80;94.00
75994;DHT22;64680;53.800;9.988;2024-01-11T13:50:15;1.80;93.40
75994;DHT22;64680;53.800;9.988;2024-01-11T13:52:43;1.80;92.50
75994;DHT22;64680;53.800;9.988;2024-01-11T13:55:09;1.90;93.10
75994;DHT22;64680;53.800;9.988;2024-01-11T13:57:37;1.90;91.90
75994;DHT22;64680;53.800;9.988;2024-01-11T14:00:07;1.90;91.70
75994;DHT22;64680;53.800;9.988;2024-01-11T14:02:34;1.90;91.10
75994;DHT22;64680;53.800;9.988;2024-01-11T14:05:00;2.00;87.90
75994;DHT22;64680;53.800;9.988;2024-01-11T14:07:26;2.00;88.00
75994;DHT22;64680;53.800;9.988;2024-01-11T14:09:51;2.00;85.50
75994;DHT22;64680;53.800;9.988;2024-01-11T14:12:17;1.90;84.20
75994;DHT22;64680;53.800;9.988;2024-01-11T14:14:43;1.90;85.10
75994;DHT22;64680;53.800;9.988;2024-01-11T14:17:09;1.90;85.80
75994;DHT22;64680;53.800;9.988;2024-01-11T14:19:35;1.90;84.80
75994;DHT22;64680;53.800;9.988;2024-01-11T14:22:00;1.70;83.40
75994;DHT22;64680;53.800;9.988;2024-01-11T14:24:26;1.80;86.50
75994;DHT22;64680;53.800;9.988;2024-01-11T14:26:52;1.80;85.60
75994;DHT22;64680;53.800;9.988;2024-01-11T14:29:18;1.70;84.70
75994;DHT22;64680;53.800;9.988;2024-01-11T14:31:43;1.60;85.50
75994;DHT22;64680;53.800;9.988;2024-01-11T14:34:09;1.50;89.50
75994;DHT22;64680;53.800;9.988;2024-01-11T14:36:36;1.60;89.20
75994;DHT22;64680;53.800;9.988;2024-01-11T14:39:01;1.50;90.00
75994;DHT22;64680;53.800;9.988;2024-01-11T14:41:29;1.50;90.80
75994;DHT22;64680;53.800;9.988;2024-01-11T14:43:56;1.40;91.90
75994;DHT22;64680;53.800;9.988;2024-01-11T14:46:22;1.40;93.50
75994;DHT22;64680;53.800;9.988;2024-01-11T14:48:47;1.40;95.50
75994;DHT22;64680;53.800;9.988;2024-01-11T14:51:14;1.40;94.80
75994;DHT22;64680;53.800;9.988;2024-01-11T14:53:39;1.40;94.40
75994;DHT22;64680;53.800;9.988;2024-01-11T14:56:05;1.30;94.70
75994;DHT22;64680;53.800;9.988;2024-01-11T14:58:31;1.40;95.50
75994;DHT22;64680;53.800;9.988;2024-01-11T15:00:56;1.30;95.50
75994;DHT22;64680;53.800;9.988;2024-01-11T15:03:23;1.30;96.00
75994;DHT22;64680;53.800;9.988;2024-01-11T15:05:50;1.30;98.10
75994;DHT22;64680;53.800;9.988;2024-01-11T15:08:17;1.30;98.20
75994;DHT22;64680;53.800;9.988;2024-01-11T15:10:44;1.20;97.80
75994;DHT22;64680;53.800;9.988;2024-01-11T15:13:10;1.10;97.80
75994;DHT22;64680;53.800;9.988;2024-01-11T15:15:36;1.10;99.90
75994;DHT22;64680;53.800;9.988;2024-01-11T15:18:02;1.10;99.10
75994;DHT22;64680;53.800;9.988;2024-01-11T15:20:28;1.10;98.70
75994;DHT22;64680;53.800;9.988;2024-01-11T15:22:54;1.10;99.90
75994;DHT22;64680;53.800;9.988;2024-01-11T15:25:19;1.10;99.90
75994;DHT22;64680;53.800;9.988;2024-01-11T15:27:46;1.00;99.90
75994;DHT22;64680;53.800;9.988;2024-01-11T15:30:11;0.90;99.90
75994;DHT22;64680;53.800;9.988;2024-01-11T15:32:38;0.90;99.90
75994;DHT22;64680;53.800;9.988;2024-01-11T15:35:04;0.80;99.90